Página principal
METAR-TAF:

METAR-TAF

Aeroportos :

Recife, Pernambuco, Brasil

Aeroporto Internacional do Recife

latitude: 08-08S, longitude: 034-55W, altura: 19 m

Observação actual do tempo

O boletim foi feito há 45 minutos, às 16:00 UTC
Vento 9 kt de es-sudeste
Temperatura 30°C
Humidade 70%
Pressão 1012 hPa
Visibilidade 10 km ou mais
Poucas nuvensa uma altura de 2300 ft

METAR: SBRF 271600Z 11009KT 9999 FEW023 30/24 Q1012

Hora: 13:45 (16:45 UTC)

Previsão

O boletim foi feito há 6 horas e 45 minutos, às 10:00 UTC
Previsão válida de 27 às 12 UTC a 28 às 12 UTC
Vento 8 kt de sudeste
Visibilidade: 8000 m
Nuvens dispersasa uma altura de 2300 ft

TAF: SBRF 271000Z 2712/2812 14008KT 8000 SCT023 TX30/2715Z TN26/2808Z RMK PCH

Observações e previsões do tempo de mais de 4000 aeroportos (mensagens METAR e TAF).

As estações disponíveis são os pontos amarelos e vermelhos sobre o mapa.

Mova o rato sobre o mapa para ver o nome da estação.

Depois clique no ponto para visualizar as observações e previsões meteorológicas.

Para alterar o mapa : clique nos botões verdes com uma cruz preta para aumentar o zoom; no botão verde com uma pitada de zoom; ou nas setas verdes para mapas adjacentes.


METAR-TAF: